Time;durP1;ratioP1;P1;durP2;ratioP2;P2;SDS_P1;SDS_P2;PMS_P1;PMS_P2;Temp;Humidity;BMP_temperature;BMP_pressure;BME280_temperature;BME280_humidity;BME280_pressure;Samples;Min_cycle;Max_cycle;Signal;HPM_P1;HPM_P2
2021/04/20 00:00:28;;;;;;;18.12;13.38;;;;;;;11.60;59.83;99422.66;4335341;32;20106;-88
2021/04/20 00:02:53;;;;;;;23.70;13.80;;;;;;;11.71;59.82;99420.44;4335611;32;20138;-90
2021/04/20 00:05:19;;;;;;;22.08;12.93;;;;;;;11.64;59.82;99419.00;4348344;32;20083;-92
2021/04/20 00:07:45;;;;;;;19.12;13.02;;;;;;;11.47;59.82;99418.84;4336112;32;20130;-92
2021/04/20 00:10:13;;;;;;;18.12;13.25;;;;;;;11.23;59.80;99420.69;4336338;32;20119;-90
2021/04/20 00:12:38;;;;;;;18.30;12.65;;;;;;;11.16;59.79;99420.09;4336455;32;20171;-93
2021/04/20 00:15:12;;;;;;;18.48;11.98;;;;;;;11.16;59.80;99416.63;4336376;32;20117;-92
2021/04/20 00:17:37;;;;;;;18.15;12.70;;;;;;;11.28;59.80;99411.75;4337270;32;20162;-92
2021/04/20 00:20:07;;;;;;;18.75;12.40;;;;;;;11.21;59.80;99412.94;4339126;32;20116;-94
2021/04/20 00:22:33;;;;;;;;;;;;;;;11.30;59.80;99409.09;4351317;32;20108;-93
2021/04/20 00:24:58;;;;;;;18.27;12.43;;;;;;;11.10;59.79;99412.50;4350601;32;20304;-92
2021/04/20 00:27:23;;;;;;;16.85;12.25;;;;;;;11.09;59.79;99413.41;4337835;32;20186;-90
2021/04/20 00:29:49;;;;;;;18.37;13.20;;;;;;;11.11;59.79;99419.41;4337522;32;20155;-90
2021/04/20 00:32:14;;;;;;;21.80;13.77;;;;;;;10.98;59.78;99424.25;4337419;32;20381;-90
2021/04/20 00:34:40;;;;;;;21.95;14.43;;;;;;;11.05;59.79;99419.66;4337456;32;20142;-92
2021/04/20 00:37:05;;;;;;;21.12;14.43;;;;;;;11.24;59.80;99410.19;4338211;32;20207;-91
2021/04/20 00:39:30;;;;;;;20.77;14.85;;;;;;;10.96;59.79;99413.03;4337918;32;21559;-92
2021/04/20 00:42:01;;;;;;;21.40;14.07;;;;;;;10.98;59.78;99418.19;4338259;32;20170;-92
2021/04/20 00:44:26;;;;;;;;;;;;;;;10.96;59.79;99407.00;4350656;32;20095;-92
2021/04/20 00:46:51;;;;;;;19.05;13.15;;;;;;;10.94;59.78;99414.87;4350350;32;20334;-93
2021/04/20 00:49:17;;;;;;;19.58;13.45;;;;;;;11.03;59.79;99405.84;4337882;32;22664;-92
2021/04/20 00:51:42;;;;;;;19.37;14.40;;;;;;;11.08;59.80;99409.94;4350290;32;20186;-91
2021/04/20 00:54:07;;;;;;;20.80;14.48;;;;;;;11.07;59.79;99404.81;4337929;32;20476;-92
2021/04/20 00:56:33;;;;;;;21.67;13.85;;;;;;;10.99;59.79;99410.31;4337788;32;24833;-92
2021/04/20 00:58:58;;;;;;;22.58;15.48;;;;;;;10.96;59.78;99407.00;4337533;32;23080;-92
2021/04/20 01:01:23;;;;;;;20.37;14.02;;;;;;;10.97;59.78;99406.94;4337694;32;21632;-90
2021/04/20 01:03:49;;;;;;;21.90;13.55;;;;;;;11.04;59.79;99397.97;4337430;32;24776;-92
2021/04/20 01:06:14;;;;;;;18.30;13.40;;;;;;;10.98;59.78;99403.41;4337452;32;22440;-91
2021/04/20 01:08:40;;;;;;;17.10;11.82;;;;;;;10.87;59.78;99404.72;4337483;32;27273;-91
2021/04/20 01:11:05;;;;;;;18.58;12.55;;;;;;;10.88;59.78;99396.00;4349542;32;21435;-92
2021/04/20 01:13:31;;;;;;;18.48;12.98;;;;;;;10.96;59.79;99391.37;4350077;32;20338;-91
2021/04/20 01:15:57;;;;;;;16.70;11.98;;;;;;;11.04;59.78;99391.91;4337943;32;20446;-91
2021/04/20 01:18:31;;;;;;;20.50;14.25;;;;;;;10.84;59.77;99387.47;4338184;32;20183;-92
2021/04/20 01:20:58;;;;;;;18.95;12.60;;;;;;;10.71;59.77;99384.50;4338486;32;20136;-91
2021/04/20 01:23:39;;;;;;;18.52;12.40;;;;;;;10.83;59.78;99392.75;4337197;32;20114;-89
2021/04/20 01:26:05;;;;;;;17.02;11.45;;;;;;;10.92;59.79;99387.19;4361927;32;20526;-90
2021/04/20 01:28:30;;;;;;;17.98;12.13;;;;;;;10.77;59.78;99388.63;4349133;32;20095;-90
2021/04/20 01:30:57;;;;;;;18.17;11.85;;;;;;;10.81;59.77;99392.81;4361142;32;20203;-91
2021/04/20 01:33:22;;;;;;;17.12;11.65;;;;;;;10.63;59.77;99396.94;4336883;32;20095;-89
2021/04/20 01:35:48;;;;;;;17.70;11.48;;;;;;;10.70;59.78;99392.38;4336651;32;25388;-89
2021/04/20 01:38:13;;;;;;;17.62;11.48;;;;;;;10.69;59.76;99396.75;4336929;32;20465;-89
2021/04/20 01:40:38;;;;;;;16.95;10.63;;;;;;;10.73;59.77;99393.09;4336125;32;20178;-88
2021/04/20 01:43:04;;;;;;;16.42;10.98;;;;;;;10.66;59.77;99399.47;4348562;32;20150;-89
2021/04/20 01:45:30;;;;;;;15.13;9.95;;;;;;;10.68;59.77;99394.19;4361062;32;20393;-87
2021/04/20 01:47:56;;;;;;;15.32;10.68;;;;;;;10.78;59.78;99395.53;4348617;32;20125;-87
2021/04/20 01:50:25;;;;;;;13.73;9.65;;;;;;;10.83;59.78;99396.19;4348646;32;20554;-89
2021/04/20 01:52:50;;;;;;;13.85;9.57;;;;;;;10.72;59.77;99388.81;4348578;32;20109;-88
2021/04/20 01:55:16;;;;;;;15.05;10.15;;;;;;;10.61;59.76;99393.56;4348622;32;20157;-87
2021/04/20 01:57:42;;;;;;;14.32;9.32;;;;;;;10.68;59.76;99389.84;4348317;32;20159;-88
2021/04/20 02:00:09;;;;;;;16.50;10.80;;;;;;;10.59;59.76;99395.38;4348658;32;20107;-91
2021/04/20 02:02:35;;;;;;;15.82;10.75;;;;;;;10.59;59.76;99387.56;4348791;32;20090;-88
2021/04/20 02:05:00;;;;;;;17.10;11.25;;;;;;;10.45;59.75;99395.91;4335793;32;20083;-89
2021/04/20 02:07:26;;;;;;;19.37;12.68;;;;;;;10.55;59.77;99393.78;4334521;32;24845;-89
2021/04/20 02:09:51;;;;;;;20.50;12.25;;;;;;;10.63;59.77;99390.87;4335591;32;20525;-89
2021/04/20 02:12:17;;;;;;;18.48;12.02;;;;;;;10.62;59.76;99389.19;4336017;32;20174;-89
2021/04/20 02:14:42;;;;;;;19.30;11.70;;;;;;;10.56;59.76;99392.03;4347824;32;20103;-90
2021/04/20 02:17:08;;;;;;;17.85;12.50;;;;;;;10.60;59.76;99386.66;4336254;32;20161;-90
2021/04/20 02:19:33;;;;;;;19.65;13.02;;;;;;;10.48;59.76;99389.72;4335896;32;24050;-91
2021/04/20 02:21:59;;;;;;;21.05;12.68;;;;;;;10.38;59.75;99384.00;4337170;32;20134;-91
2021/04/20 02:24:24;;;;;;;18.80;12.02;;;;;;;10.40;59.76;99390.00;4337110;32;20150;-91
2021/04/20 02:26:49;;;;;;;19.80;12.32;;;;;;;10.45;59.75;99382.03;4336838;32;20142;-92
2021/04/20 02:29:15;;;;;;;20.80;12.43;;;;;;;10.44;59.76;99381.19;4336448;32;24180;-91
2021/04/20 02:31:41;;;;;;;16.73;11.55;;;;;;;10.33;59.76;99379.88;4348972;32;20291;-92
2021/04/20 02:34:07;;;;;;;20.60;12.95;;;;;;;10.23;59.74;99379.38;4336941;32;20087;-91
2021/04/20 02:36:40;;;;;;;19.90;12.88;;;;;;;10.23;59.74;99381.13;4337720;32;20111;-92
2021/04/20 02:39:05;;;;;;;18.87;12.10;;;;;;;10.20;59.74;99384.66;4337760;32;20102;-93
2021/04/20 02:41:31;;;;;;;21.10;13.40;;;;;;;10.29;59.74;99386.09;4337518;32;20459;-93
2021/04/20 02:43:56;;;;;;;19.98;12.35;;;;;;;10.22;59.74;99382.03;4338170;32;20155;-92
2021/04/20 02:46:22;;;;;;;20.52;12.90;;;;;;;10.53;59.76;99385.19;4338164;32;20449;-92
2021/04/20 02:48:49;;;;;;;19.40;12.52;;;;;;;10.44;59.75;99381.19;4337941;32;20133;-92
2021/04/20 02:51:14;;;;;;;17.12;12.57;;;;;;;10.54;59.75;99386.91;4337621;32;20106;-89
2021/04/20 02:53:43;;;;;;;20.33;13.65;;;;;;;10.48;59.76;99387.12;4337249;32;20110;-92
2021/04/20 02:56:11;;;;;;;19.75;12.68;;;;;;;10.51;59.76;99383.56;4349389;32;20107;-91
2021/04/20 02:58:37;;;;;;;19.33;13.18;;;;;;;10.42;59.75;99382.16;4336986;32;20123;-90
2021/04/20 03:01:05;;;;;;;21.98;13.62;;;;;;;10.54;59.75;99379.09;4348989;32;20593;-91
2021/04/20 03:03:33;;;;;;;20.80;13.35;;;;;;;10.58;59.76;99364.19;4349601;32;20532;-91
2021/04/20 03:06:02;;;;;;;19.58;13.50;;;;;;;10.45;59.75;99376.84;4337275;32;20137;-92
2021/04/20 03:08:29;;;;;;;24.17;14.27;;;;;;;10.28;59.74;99374.84;4349239;32;20127;-92
2021/04/20 03:10:57;;;;;;;24.12;14.35;;;;;;;10.36;59.75;99377.16;4337206;32;20086;-92
2021/04/20 03:13:22;;;;;;;21.73;14.90;;;;;;;10.36;59.75;99372.81;4337436;32;20167;-92
2021/04/20 03:15:48;;;;;;;20.60;13.23;;;;;;;10.35;59.75;99370.25;4337262;32;20158;-92
2021/04/20 03:18:13;;;;;;;20.17;13.00;;;;;;;10.39;59.75;99371.84;4337602;32;20194;-91
2021/04/20 03:20:39;;;;;;;18.83;13.40;;;;;;;10.53;59.75;99363.53;4337556;32;20130;-91
2021/04/20 03:23:04;;;;;;;18.85;13.27;;;;;;;10.48;59.76;99368.06;4337426;32;20113;-92
2021/04/20 03:25:32;;;;;;;21.17;14.75;;;;;;;10.54;59.76;99370.44;4337317;32;20198;-93
2021/04/20 03:27:58;;;;;;;18.85;13.23;;;;;;;10.56;59.76;99366.88;4337759;32;21039;-94
2021/04/20 03:30:26;;;;;;;19.60;13.10;;;;;;;10.61;59.76;99367.53;4337694;32;20148;-92
2021/04/20 03:33:01;;;;;;;19.23;13.27;;;;;;;10.45;59.75;99371.62;4337702;32;21228;-93
2021/04/20 03:35:30;;;;;;;22.37;14.77;;;;;;;10.45;59.76;99369.03;4338036;32;20115;-93
2021/04/20 03:38:04;;;;;;;22.15;14.40;;;;;;;10.51;59.76;99370.56;4349737;32;20119;-94
2021/04/20 03:40:30;;;;;;;29.17;15.38;;;;;;;10.39;59.75;99379.66;4349450;32;20091;-94
2021/04/20 03:42:57;;;;;;;22.58;14.80;;;;;;;10.44;59.75;99380.34;4338053;32;20099;-93
2021/04/20 03:45:25;;;;;;;24.65;15.68;;;;;;;10.41;59.76;99373.50;4338050;32;20461;-94
2021/04/20 03:47:53;;;;;;;22.23;15.65;;;;;;;10.39;59.75;99377.91;4338237;32;20144;-94
2021/04/20 03:50:25;;;;;;;23.20;15.98;;;;;;;10.51;59.76;99376.59;4338510;32;20078;-92
2021/04/20 03:52:53;;;;;;;25.15;16.52;;;;;;;10.50;59.76;99372.31;4339610;32;20105;-93
2021/04/20 03:55:21;;;;;;;28.30;16.02;;;;;;;10.37;59.75;99379.72;4340382;32;20107;-94
2021/04/20 03:57:46;;;;;;;25.15;16.92;;;;;;;10.50;59.76;99369.69;4340469;32;20134;-93
2021/04/20 04:00:13;;;;;;;26.27;16.80;;;;;;;10.48;59.76;99375.87;4339185;32;20125;-91
2021/04/20 04:02:39;;;;;;;28.00;15.52;;;;;;;10.58;59.76;99369.41;4351418;32;20091;-91
2021/04/20 04:05:06;;;;;;;27.55;17.17;;;;;;;10.49;59.76;99381.03;4339416;32;20354;-92
2021/04/20 04:07:31;;;;;;;31.55;18.73;;;;;;;10.48;59.76;99387.12;4351262;32;20412;-92
2021/04/20 04:09:57;;;;;;;27.92;17.48;;;;;;;10.58;59.76;99378.06;4337943;32;20117;-89
2021/04/20 04:12:22;;;;;;;26.20;17.40;;;;;;;10.49;59.76;99383.63;4351857;32;20134;-94
2021/04/20 04:14:48;;;;;;;28.42;17.08;;;;;;;10.56;59.76;99381.63;4339242;32;20103;-93
2021/04/20 04:17:14;;;;;;;27.80;16.98;;;;;;;10.40;59.75;99383.94;4338587;32;20137;-91
2021/04/20 04:19:43;;;;;;;25.85;16.55;;;;;;;10.32;59.76;99384.25;4350673;32;20090;-90
2021/04/20 04:22:13;;;;;;;25.83;16.73;;;;;;;10.33;59.75;99385.94;4337770;32;20689;-90
2021/04/20 04:24:46;;;;;;;26.60;16.92;;;;;;;10.42;59.76;99388.22;4338399;32;20798;-91
2021/04/20 04:27:12;;;;;;;29.27;18.15;;;;;;;10.30;59.74;99393.84;4338030;32;20129;-94
2021/04/20 04:29:38;;;;;;;30.25;18.98;;;;;;;10.34;59.75;99386.78;4339770;32;20117;-94
2021/04/20 04:32:04;;;;;;;28.45;17.87;;;;;;;10.39;59.75;99383.09;4339561;32;20095;-94
2021/04/20 04:34:29;;;;;;;26.70;17.40;;;;;;;10.39;59.76;99385.69;4339796;32;20157;-90
2021/04/20 04:36:55;;;;;;;29.95;18.50;;;;;;;10.48;59.76;99387.12;4337218;32;20118;-91
2021/04/20 04:39:20;;;;;;;29.83;18.30;;;;;;;10.41;59.75;99385.69;4349497;32;20396;-89
2021/04/20 04:41:49;;;;;;;30.23;17.98;;;;;;;10.51;59.76;99392.22;4349353;32;21075;-90
2021/04/20 04:44:14;;;;;;;34.80;19.67;;;;;;;10.43;59.76;99387.31;4361816;32;20102;-90
2021/04/20 04:46:40;;;;;;;30.95;18.30;;;;;;;10.32;59.76;99386.00;4337172;32;20487;-90
2021/04/20 04:49:06;;;;;;;33.20;17.75;;;;;;;10.48;59.76;99391.50;4337132;32;20091;-90
2021/04/20 04:51:31;;;;;;;26.62;16.87;;;;;;;10.53;59.75;99386.94;4337098;32;20609;-90
2021/04/20 04:53:57;;;;;;;29.33;17.42;;;;;;;10.53;59.76;99392.16;4337152;32;20121;-90
2021/04/20 04:56:23;;;;;;;27.73;18.20;;;;;;;10.54;59.76;99393.84;4337151;32;20127;-90
2021/04/20 04:58:48;;;;;;;29.40;17.65;;;;;;;10.71;59.77;99387.12;4337257;32;20103;-90
2021/04/20 05:01:13;;;;;;;32.17;20.20;;;;;;;10.72;59.77;99391.41;4337058;32;20145;-90
2021/04/20 05:03:40;;;;;;;26.15;16.98;;;;;;;10.74;59.77;99388.75;4349029;32;20129;-90
2021/04/20 05:06:05;;;;;;;30.40;18.98;;;;;;;10.85;59.77;99390.91;4336621;32;20111;-90
2021/04/20 05:08:30;;;;;;;30.33;18.87;;;;;;;10.79;59.78;99385.97;4336362;32;22224;-89
2021/04/20 05:11:02;;;;;;;29.70;18.80;;;;;;;11.04;59.79;99391.91;4336689;32;20198;-89
2021/04/20 05:13:29;;;;;;;35.13;22.13;;;;;;;11.08;59.79;99394.31;4336711;32;20137;-89
2021/04/20 05:15:54;;;;;;;35.65;22.37;;;;;;;11.03;59.79;99395.41;4337002;32;20136;-89
2021/04/20 05:18:19;;;;;;;33.85;20.35;;;;;;;11.16;59.79;99391.44;4336757;32;20100;-92
2021/04/20 05:20:45;;;;;;;30.77;19.42;;;;;;;11.23;59.80;99384.22;4336751;32;24340;-89
2021/04/20 05:23:14;;;;;;;29.37;19.75;;;;;;;11.46;59.81;99391.09;4336992;32;20119;-90
2021/04/20 05:25:40;;;;;;;30.73;19.05;;;;;;;11.34;59.80;99390.66;4336561;32;20292;-89
2021/04/20 05:28:06;;;;;;;29.65;20.67;;;;;;;11.50;59.81;99390.87;4361228;32;20154;-90
2021/04/20 05:30:31;;;;;;;36.80;20.73;;;;;;;11.40;59.81;99396.56;4348736;32;20352;-87
2021/04/20 05:32:58;;;;;;;31.50;20.37;;;;;;;11.48;59.81;99392.72;4360830;32;25008;-89
2021/04/20 05:35:23;;;;;;;32.42;20.55;;;;;;;11.62;59.82;99392.16;4348868;32;20445;-89
2021/04/20 05:37:49;;;;;;;31.02;19.92;;;;;;;11.50;59.81;99403.06;4348334;32;23983;-90
2021/04/20 05:40:17;;;;;;;35.17;21.70;;;;;;;11.75;59.83;99395.91;4348353;32;20083;-88
2021/04/20 05:42:42;;;;;;;34.63;21.80;;;;;;;11.62;59.82;99397.38;4348423;32;20136;-88
2021/04/20 05:45:09;;;;;;;30.98;19.73;;;;;;;11.83;59.83;99395.62;4348410;32;20155;-89
2021/04/20 05:47:38;;;;;;;34.67;19.35;;;;;;;12.08;59.84;99388.47;4348605;32;20118;-89
2021/04/20 05:50:04;;;;;;;31.70;21.00;;;;;;;12.01;59.84;99389.63;4348683;32;20099;-88
2021/04/20 05:52:35;;;;;;;33.40;21.40;;;;;;;12.07;59.84;99394.59;4361136;32;20095;-89
2021/04/20 05:55:01;;;;;;;33.67;21.92;;;;;;;12.09;59.85;99397.97;4336584;32;20162;-89
2021/04/20 05:57:26;;;;;;;31.90;20.60;;;;;;;12.06;59.84;99405.06;4336479;32;20164;-90
2021/04/20 05:59:53;;;;;;;33.05;20.60;;;;;;;12.20;59.84;99392.28;4332500;32;20142;-88
2021/04/20 06:02:19;;;;;;;31.92;21.15;;;;;;;12.23;59.85;99398.19;4345219;32;20111;-90
2021/04/20 06:04:44;;;;;;;34.60;21.15;;;;;;;12.06;59.85;99397.25;4359837;32;20346;-88
2021/04/20 06:07:11;;;;;;;32.15;20.98;;;;;;;12.14;59.85;99398.63;4360262;32;20095;-88
2021/04/20 06:09:37;;;;;;;30.08;20.12;;;;;;;12.23;59.85;99395.59;4335437;32;20149;-88
2021/04/20 06:12:02;;;;;;;33.25;20.12;;;;;;;12.10;59.84;99397.06;4360492;32;20107;-87
2021/04/20 06:14:27;;;;;;;31.98;21.62;;;;;;;12.36;59.87;99408.09;4360214;32;20397;-87
2021/04/20 06:16:53;;;;;;;32.00;20.42;;;;;;;12.23;59.85;99398.19;4347314;32;20139;-87
2021/04/20 06:19:18;;;;;;;33.00;20.83;;;;;;;12.11;59.84;99403.12;4359562;32;20123;-88
2021/04/20 06:21:46;;;;;;;32.35;19.83;;;;;;;12.27;59.85;99396.28;4347984;32;20379;-87
2021/04/20 06:24:11;;;;;;;34.50;21.27;;;;;;;12.45;59.86;99405.91;4360814;32;20130;-87
2021/04/20 06:26:38;;;;;;;29.77;19.35;;;;;;;12.42;59.86;99395.62;4335316;32;22939;-87
2021/04/20 06:29:04;;;;;;;31.12;20.00;;;;;;;12.49;59.86;99401.41;4348189;32;20153;-88
2021/04/20 06:31:32;;;;;;;29.05;19.73;;;;;;;12.53;59.87;99403.81;4347804;32;20130;-88
2021/04/20 06:33:58;;;;;;;27.05;18.95;;;;;;;12.37;59.86;99402.81;4348246;32;20111;-88
2021/04/20 06:36:23;;;;;;;34.70;22.05;;;;;;;12.29;59.86;99394.47;4359784;32;26757;-88
2021/04/20 06:38:49;;;;;;;28.87;19.15;;;;;;;12.47;59.86;99398.87;4335570;32;20102;-88
2021/04/20 06:41:14;;;;;;;31.52;20.12;;;;;;;12.62;59.87;99406.94;4335338;32;20126;-88
2021/04/20 06:43:53;;;;;;;29.52;19.17;;;;;;;12.45;59.86;99413.75;4335221;32;20149;-88
2021/04/20 06:46:23;;;;;;;28.62;19.77;;;;;;;12.50;59.86;99417.00;4359939;32;20094;-88
2021/04/20 06:48:54;;;;;;;35.20;19.95;;;;;;;12.69;59.88;99419.63;4360568;32;20083;-88
2021/04/20 06:51:21;;;;;;;31.62;20.67;;;;;;;12.73;59.88;99417.72;4360273;32;20099;-88
2021/04/20 06:53:52;;;;;;;34.40;21.77;;;;;;;12.88;59.88;99414.41;4335928;32;20122;-86
2021/04/20 06:56:35;;;;;;;29.58;19.98;;;;;;;12.82;59.89;99420.78;4360246;32;20091;-88
2021/04/20 06:59:32;;;;;;;29.10;19.52;;;;;;;12.97;59.88;99415.72;4360248;32;20108;-88
2021/04/20 07:02:15;;;;;;;29.25;19.58;;;;;;;13.05;59.90;99419.69;4342943;32;20135;-88
2021/04/20 07:04:45;;;;;;;28.48;18.60;;;;;;;13.26;59.90;99424.84;4361432;32;20187;-87
2021/04/20 07:07:14;;;;;;;;;;;;;;;13.23;59.90;99424.97;4348562;32;20098;-88
2021/04/20 07:09:45;;;;;;;29.92;18.33;;;;;;;13.11;59.89;99421.16;4361344;32;19978;-88
2021/04/20 07:12:11;;;;;;;25.62;17.33;;;;;;;13.33;59.91;99424.47;4359917;32;20153;-88
2021/04/20 07:14:40;;;;;;;24.85;17.00;;;;;;;13.67;59.93;99428.87;4359983;32;20154;-88
2021/04/20 07:17:23;;;;;;;25.42;17.37;;;;;;;13.55;59.92;99429.50;4360030;32;20099;-88
2021/04/20 07:20:17;;;;;;;26.27;17.73;;;;;;;13.92;59.94;99422.41;4359964;32;20498;-88
2021/04/20 07:23:04;;;;;;;28.60;18.30;;;;;;;14.04;59.95;99429.66;4361181;32;20102;-88
2021/04/20 07:25:33;;;;;;;33.03;18.15;;;;;;;14.34;59.97;99428.06;4360965;32;20099;-87
2021/04/20 07:28:12;;;;;;;26.10;17.40;;;;;;;14.51;59.97;99421.97;4346647;32;20102;-87
2021/04/20 07:30:49;;;;;;;25.52;16.87;;;;;;;14.19;59.96;99421.00;4347929;32;20251;-87
2021/04/20 07:33:34;;;;;;;24.37;16.77;;;;;;;14.34;59.97;99429.84;4360044;32;20107;-87
2021/04/20 07:36:28;;;;;;;23.35;17.25;;;;;;;14.19;59.96;99426.22;4360033;32;20103;-88
2021/04/20 07:39:03;;;;;;;27.77;18.62;;;;;;;14.34;59.97;99427.22;4347912;32;20213;-88
2021/04/20 07:41:31;;;;;;;27.10;19.60;;;;;;;14.51;59.97;99426.38;4346959;32;20126;-88
2021/04/20 07:44:14;;;;;;;27.15;18.35;;;;;;;14.64;59.99;99427.38;4361005;32;20125;-89
2021/04/20 07:46:59;;;;;;;27.80;19.80;;;;;;;14.49;59.98;99433.47;4359693;32;20133;-88
2021/04/20 07:49:56;;;;;;;31.87;19.10;;;;;;;14.54;59.97;99426.19;4347263;32;20154;-88
2021/04/20 07:52:44;;;;;;;30.98;20.23;;;;;;;14.51;59.97;99431.59;4359562;32;20099;-88
2021/04/20 07:55:16;;;;;;;31.87;20.50;;;;;;;14.69;59.97;99426.22;4360126;32;20173;-89
2021/04/20 07:57:43;;;;;;;28.10;18.85;;;;;;;14.63;59.97;99428.31;4347172;32;20137;-88
2021/04/20 08:00:22;;;;;;;29.77;20.35;;;;;;;14.91;59.99;99419.81;4359404;32;20095;-88
2021/04/20 08:02:58;;;;;;;28.40;19.05;;;;;;;14.98;60.00;99419.41;4347149;32;20440;-88
2021/04/20 08:05:51;;;;;;;28.35;19.35;;;;;;;15.00;60.00;99419.31;4334878;32;20511;-90
2021/04/20 08:08:39;;;;;;;25.48;18.42;;;;;;;15.19;60.01;99417.38;4359381;32;20107;-89
2021/04/20 08:11:26;;;;;;;26.12;19.12;;;;;;;15.23;60.01;99425.91;4359119;32;20151;-88
2021/04/20 08:14:08;;;;;;;28.85;18.40;;;;;;;15.31;60.01;99428.91;4359565;32;20096;-88
2021/04/20 08:16:50;;;;;;;24.83;18.67;;;;;;;15.30;60.01;99427.22;4359379;32;20103;-88
2021/04/20 08:19:20;;;;;;;22.92;18.05;;;;;;;15.34;60.02;99421.72;4347072;32;20107;-88
2021/04/20 08:21:50;;;;;;;26.48;18.55;;;;;;;15.19;60.01;99432.25;4346754;32;20120;-88
2021/04/20 08:24:29;;;;;;;25.60;16.73;;;;;;;15.19;60.01;99427.84;4347003;32;20179;-88
2021/04/20 08:27:01;;;;;;;26.83;17.65;;;;;;;15.36;60.02;99424.25;4359151;32;20162;-88
2021/04/20 08:29:28;;;;;;;24.05;16.90;;;;;;;15.36;60.02;99421.63;4360442;32;20143;-88
2021/04/20 08:31:59;;;;;;;24.23;17.87;;;;;;;15.60;60.03;99429.91;4346803;32;20107;-88
2021/04/20 08:34:30;;;;;;;24.27;18.08;;;;;;;15.63;60.04;99422.72;4346643;32;20091;-88
2021/04/20 08:37:06;;;;;;;22.73;16.17;;;;;;;15.53;60.02;99418.91;4347004;32;20182;-88
2021/04/20 08:39:36;;;;;;;31.45;22.92;;;;;;;15.46;60.02;99428.06;4359806;32;20112;-88
2021/04/20 08:42:19;;;;;;;24.58;18.92;;;;;;;15.34;60.02;99424.34;4348766;32;20124;-88
2021/04/20 08:45:06;;;;;;;25.67;16.67;;;;;;;15.60;60.03;99425.50;4361249;32;20162;-88
2021/04/20 08:47:54;;;;;;;21.80;16.33;;;;;;;15.64;60.04;99426.19;4362499;32;20087;-88
2021/04/20 08:50:24;;;;;;;22.13;15.85;;;;;;;15.96;60.05;99419.91;4361239;32;20507;-88
2021/04/20 08:53:11;;;;;;;21.08;15.77;;;;;;;16.02;60.06;99418.69;4348979;32;20120;-88
2021/04/20 08:55:53;;;;;;;20.27;14.60;;;;;;;16.26;60.07;99419.00;4362351;32;20117;-88
2021/04/20 08:59:03;;;;;;;21.52;15.65;;;;;;;16.45;60.08;99418.72;4349638;32;20133;-88
2021/04/20 09:01:35;;;;;;;21.98;15.65;;;;;;;16.59;60.09;99408.22;4350392;32;20124;-88
2021/04/20 09:04:14;;;;;;;22.10;15.15;;;;;;;16.73;60.09;99416.09;4361010;32;20091;-88
2021/04/20 09:07:01;;;;;;;20.83;14.70;;;;;;;17.09;60.12;99412.09;4361123;32;20121;-88
2021/04/20 09:09:28;;;;;;;23.90;15.25;;;;;;;17.11;60.11;99408.44;4360774;32;20125;-88
2021/04/20 09:11:59;;;;;;;22.98;15.77;;;;;;;17.11;60.11;99405.81;4360807;32;20108;-89
2021/04/20 09:14:25;;;;;;;19.08;14.18;;;;;;;17.10;60.11;99416.41;4348625;32;20782;-88
2021/04/20 09:17:07;;;;;;;21.70;15.30;;;;;;;17.14;60.11;99412.66;4360967;32;20113;-90
2021/04/20 09:19:39;;;;;;;22.37;15.05;;;;;;;17.36;60.13;99412.09;4348478;32;20177;-88
2021/04/20 09:22:23;;;;;;;21.77;14.95;;;;;;;17.46;60.13;99407.91;4348689;32;20127;-88
2021/04/20 09:25:05;;;;;;;25.12;15.68;;;;;;;17.26;60.12;99406.56;4362210;32;20170;-88
2021/04/20 09:28:14;;;;;;;23.52;15.75;;;;;;;17.24;60.12;99408.47;4362251;32;20105;-87
2021/04/20 09:30:59;;;;;;;21.98;14.13;;;;;;;17.34;60.12;99406.09;4332089;32;20678;-89
2021/04/20 09:33:46;;;;;;;19.58;14.20;;;;;;;17.00;60.10;99404.78;4336261;32;20119;-89
2021/04/20 09:36:12;;;;;;;22.27;15.95;;;;;;;16.75;60.08;99403.72;4361087;32;20157;-90
2021/04/20 09:38:42;;;;;;;23.15;14.90;;;;;;;16.79;60.10;99406.97;4348690;32;20448;-89
2021/04/20 09:41:07;;;;;;;;;;;;;;;16.80;60.10;99400.81;4361217;32;20557;-89
2021/04/20 09:43:42;;;;;;;23.67;16.02;;;;;;;17.03;60.11;99402.78;4360859;32;19994;-89
2021/04/20 09:46:09;;;;;;;22.20;15.48;;;;;;;17.06;60.11;99402.62;4348975;32;20490;-88
2021/04/20 09:48:56;;;;;;;19.48;14.27;;;;;;;16.93;60.11;99404.34;4361018;32;20098;-89
2021/04/20 09:51:24;;;;;;;18.58;14.02;;;;;;;17.15;60.11;99398.56;4359780;32;20106;-90
2021/04/20 09:54:02;;;;;;;19.98;14.25;;;;;;;17.11;60.12;99399.69;4360605;32;20111;-89
2021/04/20 09:56:38;;;;;;;18.90;13.62;;;;;;;17.07;60.11;99398.22;4349048;32;20092;-89
2021/04/20 09:59:06;;;;;;;16.10;12.02;;;;;;;17.34;60.12;99388.53;4348329;32;20091;-89
2021/04/20 10:01:56;;;;;;;17.83;13.38;;;;;;;17.27;60.12;99396.91;4348476;32;20173;-90
2021/04/20 10:04:41;;;;;;;17.65;12.75;;;;;;;17.20;60.11;99401.72;4357306;32;108456;-89
2021/04/20 10:07:31;;;;;;;18.92;13.45;;;;;;;17.24;60.12;99397.94;4360417;32;20095;-89
2021/04/20 10:10:13;;;;;;;16.50;13.30;;;;;;;17.33;60.13;99400.00;4360443;32;20479;-89
2021/04/20 10:12:48;;;;;;;18.10;12.60;;;;;;;17.54;60.13;99394.28;4336108;32;20134;-90
2021/04/20 10:15:15;;;;;;;18.70;13.30;;;;;;;17.90;60.15;99396.25;4348159;32;20111;-89
2021/04/20 10:17:59;;;;;;;16.85;12.45;;;;;;;17.96;60.16;99394.03;4361896;32;20776;-90
2021/04/20 10:20:35;;;;;;;16.40;12.25;;;;;;;18.12;60.17;99393.00;4361733;32;20233;-89
2021/04/20 10:23:17;;;;;;;16.45;12.07;;;;;;;18.25;60.18;99385.94;4360527;32;20211;-89
2021/04/20 10:25:50;;;;;;;14.55;10.73;;;;;;;18.27;60.18;99391.94;4361916;32;20495;-89
2021/04/20 10:28:28;;;;;;;14.10;10.13;;;;;;;18.41;60.18;99383.91;4336454;32;20116;-89
2021/04/20 10:30:56;;;;;;;15.02;10.73;;;;;;;18.77;60.20;99377.03;4348974;32;20095;-88
2021/04/20 10:33:22;;;;;;;14.40;10.63;;;;;;;18.81;60.20;99376.69;4348062;32;20536;-89
2021/04/20 10:35:48;;;;;;;14.27;10.25;;;;;;;19.21;60.22;99376.44;4360245;32;20108;-88
2021/04/20 10:38:15;;;;;;;13.38;10.55;;;;;;;19.46;60.23;99367.56;4360575;32;20090;-88
2021/04/20 10:40:42;;;;;;;14.18;10.85;;;;;;;19.52;60.24;99361.81;4360333;32;20095;-88
2021/04/20 10:43:18;;;;;;;14.00;10.32;;;;;;;19.43;60.24;99366.00;4348334;32;20107;-88
2021/04/20 10:45:43;;;;;;;13.93;9.68;;;;;;;19.43;60.23;99359.88;4360394;32;20099;-88
2021/04/20 10:48:09;;;;;;;12.23;9.75;;;;;;;19.60;60.25;99359.47;4361658;32;20117;-87
2021/04/20 10:50:37;;;;;;;15.07;9.30;;;;;;;19.68;60.25;99357.09;4347807;32;20106;-88
2021/04/20 10:53:11;;;;;;;15.40;10.18;;;;;;;19.82;60.25;99350.75;4347837;32;20107;-88
2021/04/20 10:55:38;;;;;;;13.98;10.63;;;;;;;19.60;60.25;99356.81;4360355;32;20158;-88
2021/04/20 10:58:05;;;;;;;13.52;9.77;;;;;;;19.07;60.22;99356.34;4348079;32;20137;-88
2021/04/20 11:00:32;;;;;;;15.45;11.05;;;;;;;18.98;60.21;99349.97;4347833;32;20114;-88
2021/04/20 11:02:57;;;;;;;14.77;10.68;;;;;;;19.08;60.21;99355.38;4358697;32;20114;-87
2021/04/20 11:05:23;;;;;;;15.25;10.40;;;;;;;18.73;60.20;99360.59;4335215;32;20137;-88
2021/04/20 11:07:49;;;;;;;17.12;10.55;;;;;;;18.41;60.19;99362.81;4360149;32;20109;-87
2021/04/20 11:10:15;;;;;;;15.93;10.65;;;;;;;18.38;60.19;99369.16;4359911;32;20090;-88
2021/04/20 11:12:50;;;;;;;13.85;10.38;;;;;;;17.98;60.16;99360.56;4347639;32;20107;-88
2021/04/20 11:15:17;;;;;;;14.48;10.40;;;;;;;18.16;60.18;99358.44;4347783;32;20102;-87
2021/04/20 11:17:42;;;;;;;15.05;9.52;;;;;;;18.28;60.18;99352.31;4359917;32;20133;-88
2021/04/20 11:20:32;;;;;;;15.13;10.20;;;;;;;18.33;60.18;99352.00;4361314;32;20095;-87
2021/04/20 11:23:06;;;;;;;16.12;10.52;;;;;;;18.17;60.18;99351.38;4352626;32;20134;-88
2021/04/20 11:25:53;;;;;;;14.90;10.25;;;;;;;17.98;60.16;99357.94;4361236;32;20166;-88
2021/04/20 11:28:38;;;;;;;14.98;10.50;;;;;;;18.40;60.19;99350.59;4359777;32;20147;-88
2021/04/20 11:31:04;;;;;;;14.90;10.43;;;;;;;18.63;60.20;99347.22;4336253;32;20411;-87
2021/04/20 11:33:35;;;;;;;15.80;10.75;;;;;;;18.41;60.19;99354.91;4359454;32;20110;-88